createdAt,value
2023-02-15T00:00:16.228Z,32.10
2023-02-15T00:02:43.881Z,32.57
2023-02-15T00:05:11.464Z,40.80
2023-02-15T00:07:39.021Z,33.60
2023-02-15T00:10:07.873Z,32.57
2023-02-15T00:12:36.466Z,32.40
2023-02-15T00:15:04.370Z,30.63
2023-02-15T00:17:31.955Z,31.70
2023-02-15T00:19:59.532Z,31.83
2023-02-15T00:22:27.304Z,30.47
2023-02-15T00:24:57.298Z,30.23
2023-02-15T00:27:24.937Z,32.87
2023-02-15T00:29:52.518Z,31.70
2023-02-15T00:32:20.166Z,30.83
2023-02-15T00:34:47.740Z,31.00
2023-02-15T00:37:15.367Z,30.93
2023-02-15T00:39:43.259Z,28.17
2023-02-15T00:42:10.846Z,30.20
2023-02-15T00:44:38.388Z,29.67
2023-02-15T00:47:06.018Z,30.53
2023-02-15T00:49:33.601Z,29.80
2023-02-15T00:52:01.203Z,29.53
2023-02-15T00:54:28.790Z,30.30
2023-02-15T00:56:56.422Z,30.27
2023-02-15T00:59:24.082Z,32.00
2023-02-15T01:01:51.703Z,30.37
2023-02-15T01:04:19.354Z,29.67
2023-02-15T01:06:52.856Z,30.23
2023-02-15T01:09:20.445Z,32.13
2023-02-15T01:11:48.084Z,31.53
2023-02-15T01:14:15.738Z,31.73
2023-02-15T01:16:43.348Z,32.00
2023-02-15T01:19:11.949Z,35.70
2023-02-15T01:21:42.732Z,34.43
2023-02-15T01:24:20.207Z,36.77
2023-02-15T01:26:50.605Z,34.13
2023-02-15T01:29:18.175Z,34.10
2023-02-15T01:31:45.957Z,31.47
2023-02-15T01:34:13.646Z,34.00
2023-02-15T01:36:41.303Z,33.00
2023-02-15T01:39:08.983Z,32.23
2023-02-15T01:41:36.708Z,31.10
2023-02-15T01:44:24.488Z,33.90
2023-02-15T01:46:53.972Z,31.43
2023-02-15T01:49:27.565Z,31.93
2023-02-15T01:51:55.344Z,34.83
2023-02-15T01:54:28.570Z,32.70
2023-02-15T01:57:04.392Z,31.93
2023-02-15T01:59:34.083Z,32.90
2023-02-15T02:02:02.847Z,36.77
2023-02-15T02:04:39.750Z,33.43
2023-02-15T02:07:13.502Z,32.70
2023-02-15T02:09:41.151Z,30.87
2023-02-15T02:12:10.149Z,32.30
2023-02-15T02:14:42.343Z,31.87
2023-02-15T02:17:26.143Z,32.50
2023-02-15T02:20:15.176Z,31.40
2023-02-15T02:23:09.014Z,33.40
2023-02-15T02:26:08.303Z,32.50
2023-02-15T02:28:38.608Z,32.47
2023-02-15T02:31:36.901Z,32.07
2023-02-15T02:34:25.308Z,33.90
2023-02-15T02:37:28.768Z,32.40
2023-02-15T02:40:02.409Z,30.23
2023-02-15T02:42:41.100Z,30.67
2023-02-15T02:45:10.250Z,31.90
2023-02-15T02:47:46.704Z,31.40
2023-02-15T02:50:18.794Z,30.13
2023-02-15T02:52:51.982Z,29.30
2023-02-15T02:55:38.489Z,29.10
2023-02-15T02:58:24.630Z,28.10
2023-02-15T03:01:06.819Z,29.17
2023-02-15T03:03:44.792Z,31.60
2023-02-15T03:06:18.824Z,30.40
2023-02-15T03:08:50.269Z,30.47
2023-02-15T03:11:18.360Z,31.47
2023-02-15T03:13:49.183Z,29.47
2023-02-15T03:16:28.502Z,30.33
2023-02-15T03:19:01.549Z,32.70
2023-02-15T03:21:34.203Z,31.77
2023-02-15T03:24:11.625Z,33.60
2023-02-15T03:26:43.231Z,31.07
2023-02-15T03:29:12.290Z,32.13
2023-02-15T03:31:44.362Z,30.17
2023-02-15T03:34:15.925Z,31.20
2023-02-15T03:37:08.138Z,31.73
2023-02-15T03:39:54.075Z,31.00
2023-02-15T03:42:33.133Z,31.47
2023-02-15T03:45:14.324Z,30.37
2023-02-15T03:47:48.905Z,30.50
2023-02-15T03:50:40.118Z,29.83
2023-02-15T03:53:16.692Z,30.50
2023-02-15T03:55:48.601Z,28.20
2023-02-15T03:58:34.831Z,29.33
2023-02-15T04:01:37.240Z,28.97
2023-02-15T04:04:12.980Z,28.10
2023-02-15T04:06:40.641Z,29.73
2023-02-15T04:09:26.988Z,28.30
2023-02-15T04:11:54.590Z,28.83
2023-02-15T04:14:41.141Z,28.07
2023-02-15T04:17:09.953Z,29.57
2023-02-15T04:19:56.271Z,28.23
2023-02-15T04:22:42.317Z,29.03
2023-02-15T04:25:15.948Z,29.93
2023-02-15T04:27:45.742Z,27.73
2023-02-15T04:30:14.877Z,27.17
2023-02-15T04:32:42.897Z,29.03
2023-02-15T04:35:12.275Z,28.30
2023-02-15T04:37:41.040Z,28.60
2023-02-15T04:40:11.129Z,26.97
2023-02-15T04:42:38.772Z,27.70
2023-02-15T04:45:07.507Z,29.13
2023-02-15T04:47:35.495Z,28.53
2023-02-15T04:50:03.216Z,25.67
2023-02-15T04:52:30.825Z,27.37
2023-02-15T04:54:58.497Z,26.63
2023-02-15T04:57:26.098Z,25.13
2023-02-15T04:59:53.739Z,25.00
2023-02-15T05:02:21.406Z,26.07
2023-02-15T05:04:49.034Z,26.93
2023-02-15T05:07:16.695Z,26.00
2023-02-15T05:09:44.328Z,26.97
2023-02-15T05:12:12.454Z,27.53
2023-02-15T05:14:40.021Z,28.07
2023-02-15T05:17:07.655Z,26.27
2023-02-15T05:19:35.266Z,25.53
2023-02-15T05:22:05.478Z,25.10
2023-02-15T05:24:51.935Z,25.80
2023-02-15T05:27:38.464Z,24.90
2023-02-15T05:30:06.887Z,25.93
2023-02-15T05:32:34.657Z,26.33
2023-02-15T05:35:06.509Z,27.50
2023-02-15T05:37:34.407Z,26.63
2023-02-15T05:40:05.101Z,26.60
2023-02-15T05:42:32.696Z,26.30
2023-02-15T05:45:00.275Z,26.10
2023-02-15T05:47:30.160Z,26.57
2023-02-15T05:49:57.794Z,25.77
2023-02-15T05:52:25.899Z,26.80
2023-02-15T05:54:53.551Z,28.37
2023-02-15T05:57:23.813Z,26.87
2023-02-15T05:59:51.355Z,26.70
2023-02-15T06:02:19.227Z,29.03
2023-02-15T06:04:48.466Z,27.30
2023-02-15T06:07:16.128Z,25.53
2023-02-15T06:09:43.752Z,25.13
2023-02-15T06:12:11.385Z,25.80
2023-02-15T06:14:38.946Z,25.80
2023-02-15T06:17:06.594Z,24.90
2023-02-15T06:19:39.103Z,23.83
2023-02-15T06:22:07.337Z,24.63
2023-02-15T06:24:35.016Z,26.33
2023-02-15T06:27:02.786Z,23.53
2023-02-15T06:29:30.367Z,24.13
2023-02-15T06:31:58.038Z,24.27
2023-02-15T06:34:25.720Z,26.77
2023-02-15T06:36:53.331Z,24.63
2023-02-15T06:39:20.934Z,24.60
2023-02-15T06:41:48.494Z,26.47
2023-02-15T06:44:16.152Z,24.20
2023-02-15T06:46:43.859Z,24.67
2023-02-15T06:49:12.709Z,23.70
2023-02-15T06:51:40.329Z,22.70
2023-02-15T06:54:07.949Z,21.40
2023-02-15T06:56:39.632Z,25.27
2023-02-15T06:59:07.284Z,23.70
2023-02-15T07:01:34.925Z,23.13
2023-02-15T07:04:02.636Z,24.00
2023-02-15T07:06:35.498Z,25.03
2023-02-15T07:13:19.274Z,24.70
2023-02-15T07:15:48.360Z,26.00
2023-02-15T07:18:16.124Z,24.20
2023-02-15T07:20:43.758Z,25.43
2023-02-15T07:23:11.433Z,26.03
2023-02-15T07:25:39.067Z,26.03
2023-02-15T07:28:07.036Z,26.90
2023-02-15T07:30:37.377Z,26.47
2023-02-15T07:33:23.728Z,26.03
2023-02-15T07:35:59.032Z,25.23
2023-02-15T07:38:28.643Z,25.73
2023-02-15T07:41:03.921Z,25.10
2023-02-15T07:43:33.358Z,26.10
2023-02-15T07:46:06.590Z,25.07
2023-02-15T07:48:35.176Z,24.40
2023-02-15T07:51:04.809Z,23.60
2023-02-15T07:53:33.258Z,23.63
2023-02-15T07:56:07.397Z,24.93
2023-02-15T07:58:53.839Z,25.43
2023-02-15T08:01:27.619Z,24.40
2023-02-15T08:03:55.801Z,24.80
2023-02-15T08:06:25.570Z,24.33
2023-02-15T08:08:53.961Z,24.37
2023-02-15T08:11:27.198Z,24.73
2023-02-15T08:14:09.519Z,24.97
2023-02-15T08:16:42.855Z,25.33
2023-02-15T08:19:29.615Z,24.77
2023-02-15T08:22:00.025Z,23.80
2023-02-15T08:24:35.832Z,27.33
2023-02-15T08:27:06.144Z,24.13
2023-02-15T08:29:35.541Z,24.50
2023-02-15T08:32:11.003Z,25.07
2023-02-15T08:34:45.685Z,22.50
2023-02-15T08:37:13.246Z,23.20
2023-02-15T08:39:40.900Z,23.80
2023-02-15T08:42:08.498Z,24.33
2023-02-15T08:44:38.844Z,23.57
2023-02-15T08:47:06.458Z,22.30
2023-02-15T08:49:36.650Z,22.60
2023-02-15T08:52:04.391Z,22.37
2023-02-15T08:54:32.049Z,21.50
2023-02-15T08:57:02.462Z,21.87
2023-02-15T08:59:30.026Z,20.33
2023-02-15T09:02:01.906Z,20.80
2023-02-15T09:04:29.661Z,23.27
2023-02-15T09:06:57.253Z,20.70
2023-02-15T09:09:25.088Z,21.17
2023-02-15T09:11:57.666Z,20.67
2023-02-15T09:14:27.953Z,20.70
2023-02-15T09:16:55.784Z,21.20
2023-02-15T09:19:24.367Z,20.37
2023-02-15T09:21:52.524Z,20.80
2023-02-15T09:24:22.961Z,21.37
2023-02-15T09:26:50.836Z,20.70
2023-02-15T09:29:19.583Z,21.27
2023-02-15T09:31:50.897Z,21.10
2023-02-15T09:34:23.270Z,23.07
2023-02-15T09:36:52.069Z,24.03
2023-02-15T09:39:24.496Z,22.37
2023-02-15T09:42:27.289Z,21.13
2023-02-15T09:45:24.677Z,22.60
2023-02-15T09:48:14.240Z,21.10
2023-02-15T09:51:00.980Z,21.47
2023-02-15T09:53:40.288Z,22.07
2023-02-15T09:56:25.536Z,20.37
2023-02-15T09:59:03.096Z,22.20
2023-02-15T10:01:49.857Z,20.73
2023-02-15T10:04:48.531Z,20.20
2023-02-15T10:07:56.805Z,21.40
2023-02-15T10:10:35.981Z,21.80
2023-02-15T10:13:18.388Z,21.20
2023-02-15T10:15:45.927Z,19.27
2023-02-15T10:18:34.081Z,19.57
2023-02-15T10:21:46.762Z,18.40
2023-02-15T10:24:42.037Z,18.17
2023-02-15T10:27:20.030Z,18.70
2023-02-15T10:30:03.177Z,19.57
2023-02-15T10:32:35.947Z,19.20
2023-02-15T10:35:34.365Z,18.70
2023-02-15T10:38:05.938Z,17.67
2023-02-15T10:41:00.852Z,19.10
2023-02-15T10:43:40.318Z,19.50
2023-02-15T10:46:34.889Z,18.90
2023-02-15T10:49:28.442Z,19.43
2023-02-15T10:52:17.186Z,20.03
2023-02-15T10:55:07.959Z,19.40
2023-02-15T10:58:01.145Z,19.70
2023-02-15T11:00:34.422Z,20.20
2023-02-15T11:03:28.884Z,19.57
2023-02-15T11:06:13.227Z,18.40
2023-02-15T11:08:44.781Z,18.60
2023-02-15T11:11:20.271Z,18.77
2023-02-15T11:13:51.928Z,18.77
2023-02-15T11:16:36.774Z,19.00
2023-02-15T11:19:17.550Z,18.70
2023-02-15T11:21:50.853Z,21.70
2023-02-15T11:24:23.670Z,19.93
2023-02-15T11:26:57.726Z,19.53
2023-02-15T11:29:48.248Z,18.87
2023-02-15T11:32:29.325Z,18.97
2023-02-15T11:35:11.939Z,16.97
2023-02-15T11:37:47.524Z,18.53
2023-02-15T11:40:52.841Z,18.57
2023-02-15T11:43:38.983Z,17.90
2023-02-15T11:46:12.020Z,17.90
2023-02-15T11:48:40.632Z,18.53
2023-02-15T11:51:23.854Z,17.93
2023-02-15T11:53:55.966Z,18.23
2023-02-15T11:56:25.626Z,18.50
2023-02-15T11:59:01.579Z,18.67
2023-02-15T12:01:48.725Z,17.83
2023-02-15T12:04:19.463Z,18.47
2023-02-15T12:06:53.741Z,18.63
2023-02-15T12:09:39.686Z,16.70
2023-02-15T12:12:25.952Z,15.90
2023-02-15T12:14:59.123Z,17.03
2023-02-15T12:17:52.949Z,16.57
2023-02-15T12:20:20.599Z,15.33
2023-02-15T12:23:08.151Z,17.27
2023-02-15T12:25:35.989Z,16.83
2023-02-15T12:28:05.236Z,16.93
2023-02-15T12:30:36.919Z,16.30
2023-02-15T12:33:22.775Z,17.00
2023-02-15T12:36:01.873Z,17.33
2023-02-15T12:38:30.539Z,17.13
2023-02-15T12:41:04.582Z,16.23
2023-02-15T12:43:35.748Z,16.07
2023-02-15T12:46:24.960Z,16.60
2023-02-15T12:49:21.442Z,17.43
2023-02-15T12:51:54.756Z,16.63
2023-02-15T12:54:30.675Z,17.70
2023-02-15T12:56:59.563Z,15.00
2023-02-15T12:59:27.214Z,16.73
2023-02-15T13:01:55.658Z,16.30
2023-02-15T13:04:23.309Z,17.57
2023-02-15T13:06:53.728Z,17.20
2023-02-15T13:09:39.087Z,17.50
2023-02-15T13:12:21.106Z,16.40
2023-02-15T13:14:55.733Z,16.93
2023-02-15T13:17:32.093Z,17.23
2023-02-15T13:20:08.202Z,17.70
2023-02-15T13:22:43.992Z,17.17
2023-02-15T13:25:28.032Z,17.63
2023-02-15T13:28:02.131Z,16.93
2023-02-15T13:30:36.472Z,16.50
2023-02-15T13:33:09.590Z,18.40
2023-02-15T13:35:55.860Z,17.50
2023-02-15T13:38:35.739Z,19.77
2023-02-15T13:41:10.289Z,19.33
2023-02-15T13:43:57.960Z,18.93
2023-02-15T13:46:52.501Z,19.03
2023-02-15T13:49:52.920Z,18.57
2023-02-15T13:52:29.240Z,18.83
2023-02-15T13:55:26.730Z,19.53
2023-02-15T13:58:25.424Z,19.23
2023-02-15T14:01:11.551Z,19.50
2023-02-15T14:03:59.349Z,21.87
2023-02-15T14:06:52.513Z,21.23
2023-02-15T14:09:28.699Z,19.47
2023-02-15T14:12:11.297Z,19.63
2023-02-15T14:15:02.806Z,19.90
2023-02-15T14:18:00.097Z,20.63
2023-02-15T14:20:47.465Z,19.77
2023-02-15T14:23:37.157Z,18.97
2023-02-15T14:26:24.180Z,20.63
2023-02-15T14:29:13.899Z,21.03
2023-02-15T14:31:44.814Z,20.13
2023-02-15T14:34:55.901Z,21.00
2023-02-15T14:37:34.886Z,20.30
2023-02-15T14:40:28.245Z,20.57
2023-02-15T14:43:09.749Z,20.47
2023-02-15T14:45:57.207Z,20.40
2023-02-15T14:48:49.011Z,20.03
2023-02-15T14:51:43.981Z,19.87
2023-02-15T14:54:18.350Z,21.20
2023-02-15T14:56:47.313Z,20.87
2023-02-15T14:59:21.731Z,21.63
2023-02-15T15:01:53.639Z,21.57
2023-02-15T15:04:30.535Z,21.27
2023-02-15T15:07:04.540Z,21.30
2023-02-15T15:09:36.227Z,20.60
2023-02-15T15:12:27.008Z,22.73
2023-02-15T15:14:55.316Z,20.83
2023-02-15T15:17:53.395Z,20.80
2023-02-15T15:20:27.110Z,21.00
2023-02-15T15:23:16.568Z,21.93
2023-02-15T15:25:59.436Z,21.50
2023-02-15T15:28:52.183Z,21.87
2023-02-15T15:31:46.821Z,22.23
2023-02-15T15:34:17.221Z,23.27
2023-02-15T15:37:10.281Z,21.20
2023-02-15T15:39:50.606Z,22.43
2023-02-15T15:42:37.517Z,23.13
2023-02-15T15:45:12.071Z,22.40
2023-02-15T15:47:58.745Z,21.87
2023-02-15T15:50:39.732Z,23.40
2023-02-15T15:53:16.538Z,23.53
2023-02-15T15:55:47.465Z,22.53
2023-02-15T15:58:19.105Z,23.30
2023-02-15T16:01:01.456Z,22.37
2023-02-15T16:03:30.544Z,22.37
2023-02-15T16:06:16.435Z,23.83
2023-02-15T16:08:44.609Z,24.53
2023-02-15T16:11:30.708Z,24.53
2023-02-15T16:13:58.629Z,24.33
2023-02-15T16:16:29.693Z,24.80
2023-02-15T16:21:45.224Z,26.13
2023-02-15T16:24:41.099Z,26.93
2023-02-15T16:27:22.504Z,25.20
2023-02-15T16:29:50.281Z,25.20
2023-02-15T16:32:20.486Z,26.47
2023-02-15T16:35:02.947Z,28.57
2023-02-15T16:37:48.771Z,29.73
2023-02-15T16:40:25.590Z,28.77
2023-02-15T16:43:04.485Z,25.80
2023-02-15T16:45:33.475Z,26.43
2023-02-15T16:48:06.593Z,28.30
2023-02-15T16:50:53.191Z,27.97
2023-02-15T16:53:28.215Z,28.50
2023-02-15T16:56:04.972Z,27.77
2023-02-15T16:58:45.109Z,28.27
2023-02-15T17:01:16.565Z,27.57
2023-02-15T17:03:44.287Z,29.17
2023-02-15T17:06:30.310Z,29.67
2023-02-15T17:09:07.012Z,28.03
2023-02-15T17:11:41.989Z,29.80
2023-02-15T17:14:12.357Z,29.93
2023-02-15T17:16:52.363Z,28.73
2023-02-15T17:19:19.905Z,28.70
2023-02-15T17:21:52.079Z,28.13
2023-02-15T17:24:32.561Z,30.50
2023-02-15T17:27:05.720Z,30.40
2023-02-15T17:29:41.453Z,28.80
2023-02-15T17:32:44.448Z,29.13
2023-02-15T17:35:25.776Z,30.10
2023-02-15T17:38:07.273Z,30.70
2023-02-15T17:40:36.837Z,29.50
2023-02-15T17:43:04.488Z,29.57
2023-02-15T17:45:41.259Z,31.83
2023-02-15T17:48:17.949Z,31.53
2023-02-15T17:50:45.578Z,31.47
2023-02-15T17:53:16.554Z,31.03
2023-02-15T17:55:44.993Z,31.50
2023-02-15T17:58:16.331Z,30.13
2023-02-15T18:01:05.332Z,28.33
2023-02-15T18:04:07.882Z,30.10
2023-02-15T18:06:57.644Z,29.20
2023-02-15T18:09:46.022Z,30.13
2023-02-15T18:12:33.040Z,32.43
2023-02-15T18:15:01.751Z,31.83
2023-02-15T18:17:34.282Z,32.13
2023-02-15T18:20:32.533Z,31.03
2023-02-15T18:23:01.966Z,31.83
2023-02-15T18:25:29.656Z,31.93
2023-02-15T18:27:57.383Z,31.57
2023-02-15T18:30:28.177Z,30.13
2023-02-15T18:32:58.097Z,30.73
2023-02-15T18:35:30.807Z,30.37
2023-02-15T18:38:00.712Z,30.33
2023-02-15T18:40:29.440Z,31.27
2023-02-15T18:42:57.459Z,32.00
2023-02-15T18:45:28.616Z,31.33
2023-02-15T18:47:56.445Z,32.20
2023-02-15T18:50:27.134Z,31.60
2023-02-15T18:52:54.896Z,32.67
2023-02-15T18:55:25.471Z,30.93
2023-02-15T18:57:55.194Z,32.53
2023-02-15T19:00:32.767Z,32.33
2023-02-15T19:03:04.340Z,35.10
2023-02-15T19:05:33.645Z,34.37
2023-02-15T19:08:02.418Z,33.63
2023-02-15T19:10:32.983Z,33.13
2023-02-15T19:13:00.743Z,35.33
2023-02-15T19:15:30.549Z,36.03
2023-02-15T19:18:01.431Z,34.10
2023-02-15T19:20:37.300Z,34.47
2023-02-15T19:23:14.504Z,35.83
2023-02-15T19:25:45.233Z,37.50
2023-02-15T19:28:32.777Z,37.10
2023-02-15T19:31:00.645Z,40.83
2023-02-15T19:33:28.346Z,36.73
2023-02-15T19:35:57.495Z,38.77
2023-02-15T19:38:29.034Z,36.60
2023-02-15T19:41:02.486Z,37.27
2023-02-15T19:43:35.232Z,38.57
2023-02-15T19:46:03.393Z,37.50
2023-02-15T19:48:31.242Z,38.70
2023-02-15T19:50:58.900Z,38.70
2023-02-15T19:53:28.683Z,38.63
2023-02-15T19:55:56.287Z,37.00
2023-02-15T19:58:27.094Z,37.47
2023-02-15T20:00:54.673Z,38.40
2023-02-15T20:03:22.478Z,39.40
2023-02-15T20:05:51.657Z,39.40
2023-02-15T20:08:24.675Z,40.87
2023-02-15T20:10:52.555Z,35.47
2023-02-15T20:13:24.400Z,35.73
2023-02-15T20:15:52.304Z,36.70
2023-02-15T20:18:22.441Z,39.10
2023-02-15T20:20:52.585Z,36.50
2023-02-15T20:23:33.540Z,37.00
2023-02-15T20:26:11.604Z,38.13
2023-02-15T20:28:39.175Z,37.50
2023-02-15T20:31:09.359Z,39.17
2023-02-15T20:33:39.623Z,36.43
2023-02-15T20:36:11.406Z,42.20
2023-02-15T20:38:39.060Z,39.43
2023-02-15T20:41:35.434Z,37.13
2023-02-15T20:44:22.110Z,35.77
2023-02-15T20:46:52.830Z,34.80
2023-02-15T20:49:25.219Z,35.67
2023-02-15T20:51:57.836Z,34.63
2023-02-15T20:54:34.716Z,35.33
2023-02-15T20:57:02.384Z,39.03
2023-02-15T20:59:32.516Z,38.33
2023-02-15T21:02:12.685Z,35.90
2023-02-15T21:04:42.828Z,35.43
2023-02-15T21:07:19.620Z,37.17
2023-02-15T21:09:48.145Z,35.43
2023-02-15T21:12:19.865Z,36.63
2023-02-15T21:14:50.090Z,35.37
2023-02-15T21:17:19.408Z,37.97
2023-02-15T21:19:47.074Z,37.17
2023-02-15T21:22:16.253Z,36.50
2023-02-15T21:24:51.768Z,36.83
2023-02-15T21:27:19.421Z,37.77
2023-02-15T21:29:47.069Z,37.00
2023-02-15T21:32:14.922Z,39.07
2023-02-15T21:34:42.833Z,38.97
2023-02-15T21:37:30.294Z,38.63
2023-02-15T21:39:58.150Z,37.27
2023-02-15T21:42:47.325Z,37.63
2023-02-15T21:45:36.156Z,39.90
2023-02-15T21:48:03.931Z,36.70
2023-02-15T21:50:50.390Z,35.17
2023-02-15T21:53:31.780Z,36.57
2023-02-15T21:56:03.277Z,35.50
2023-02-15T21:58:36.421Z,35.87
2023-02-15T22:01:04.523Z,36.20
2023-02-15T22:03:37.638Z,37.00
2023-02-15T22:06:05.709Z,37.30
2023-02-15T22:08:33.984Z,33.60
2023-02-15T22:11:02.096Z,34.57
2023-02-15T22:13:33.886Z,35.23
2023-02-15T22:16:02.954Z,34.93
2023-02-15T22:18:34.436Z,36.33
2023-02-15T22:21:04.465Z,35.87
2023-02-15T22:23:32.337Z,37.07
2023-02-15T22:26:05.387Z,36.53
2023-02-15T22:28:35.573Z,36.87
2023-02-15T22:31:04.680Z,36.07
2023-02-15T22:33:34.369Z,38.50
2023-02-15T22:36:02.091Z,35.93
2023-02-15T22:38:29.945Z,34.37
2023-02-15T22:41:04.951Z,35.17
2023-02-15T22:43:38.034Z,31.37
2023-02-15T22:46:08.343Z,34.57
2023-02-15T22:48:36.091Z,32.47
2023-02-15T22:51:04.146Z,32.67
2023-02-15T22:53:31.935Z,35.03
2023-02-15T22:56:04.528Z,34.10
2023-02-15T22:58:32.378Z,34.77
2023-02-15T23:01:01.916Z,31.70
2023-02-15T23:03:31.440Z,32.53
2023-02-15T23:05:59.328Z,31.90
2023-02-15T23:08:27.026Z,29.80
2023-02-15T23:10:56.727Z,31.13
2023-02-15T23:13:30.109Z,32.07
2023-02-15T23:16:00.719Z,31.80
2023-02-15T23:18:31.294Z,31.80
2023-02-15T23:21:20.537Z,32.17
2023-02-15T23:23:54.233Z,30.77
2023-02-15T23:26:27.696Z,32.13
2023-02-15T23:28:57.910Z,32.23
2023-02-15T23:31:30.416Z,32.73
2023-02-15T23:33:59.528Z,34.17
2023-02-15T23:36:38.632Z,34.17
2023-02-15T23:39:36.608Z,33.17
2023-02-15T23:42:11.455Z,32.87
2023-02-15T23:44:40.750Z,32.17
2023-02-15T23:47:44.823Z,33.60
2023-02-15T23:50:32.904Z,32.53
2023-02-15T23:53:01.290Z,31.47
2023-02-15T23:55:36.373Z,33.90
2023-02-15T23:58:13.426Z,33.63
